Latest Weather Observations for Tatura

IDV60801

Issued at 7:31 am EST Friday 3 July 2015 (issued every 30 minutes, with the page automatically refreshed every 10 minutes)

About weather observations | Map of weather stations | Latest weather observations for VIC | Other Formats
Station Details ID: 081049 Name: TATURA INST SUSTAINABLE AG Lat: -36.44 Lon: 145.27 Height: 114.0 m
Data from the previous 72 hours. | See also: Recent months at Tatura
Date/Time
EST
Temp
°C
App
Temp
°C
Dew
Point
Rel
Hum
%
Delta-T
°C
Wind Press
QNH
hPa
Press
MSL
hPa
Rain
since 9 am
mm
Dir
 
Spd
km/h
Gust
km/h
Spd
kts
Gust
kts
03/07:30am 2.7 0.6 2.0 95 0.3 - 2 6 1 3 - - 0.0
03/07:00am 3.0 0.0 2.3 95 0.3 - 7 9 4 5 - - 0.0
03/06:30am 2.1 -0.4 1.8 98 0.1 - 4 7 2 4 - - 0.0
03/06:00am 0.7 -1.2 0.3 97 0.1 CALM 0 0 0 0 - - 0.0
03/05:30am 1.0 -0.9 0.7 98 0.1 CALM 0 0 0 0 - - 0.0
03/05:00am 0.5 -1.5 0.2 98 0.1 CALM 0 6 0 3 - - 0.0
03/04:30am -0.5 -2.6 -0.8 98 0.1 CALM 0 0 0 0 - - 0.0
03/04:00am -1.5 -3.7 -1.9 97 0.1 CALM 0 0 0 0 - - 0.0
03/03:30am -0.9 -4.4 -1.3 97 0.1 - 7 9 4 5 - - 0.0
03/03:00am -1.5 -4.9 -1.9 97 0.1 - 6 9 3 5 - - 0.0
03/02:30am -1.4 -4.4 -2.0 96 0.1 - 4 7 2 4 - - 0.0
03/02:00am -1.3 -4.9 -2.0 95 0.2 - 7 9 4 5 - - 0.0
03/01:30am -0.6 -3.2 -1.4 94 0.3 - 2 6 1 3 - - 0.0
03/01:00am 0.0 -2.1 -1.0 93 0.4 CALM 0 0 0 0 - - 0.0
03/12:30am 0.4 -3.4 -0.6 93 0.4 - 9 11 5 6 - - 0.0
03/12:00am -0.5 -4.4 -1.3 94 0.3 - 9 11 5 6 - - 0.0
 
Date/Time
EST
Temp
°C
App
Temp
°C
Dew
Point
Rel
Hum
%
Delta-T
°C
Wind Press
QNH
hPa
Press
MSL
hPa
Rain
since 9 am
mm
Dir
 
Spd
km/h
Gust
km/h
Spd
kts
Gust
kts
02/11:30pm -0.8 -4.3 -1.6 94 0.2 - 7 7 4 4 - - 0.0
02/11:00pm -0.1 -3.4 -1.1 93 0.3 - 6 9 3 5 - - 0.0
02/10:30pm 0.7 -1.4 -0.7 90 0.5 CALM 0 0 0 0 - - 0.0
02/10:00pm 1.0 -1.1 -0.6 89 0.6 CALM 0 0 0 0 - - 0.0
02/09:30pm 1.8 -0.2 0.0 88 0.7 CALM 0 0 0 0 - - 0.0
02/09:00pm 3.4 0.4 0.5 81 1.1 - 6 7 3 4 - - 0.0
02/08:30pm 2.6 0.2 -0.3 81 1.1 - 2 6 1 3 - - 0.0
02/08:00pm 4.7 2.4 0.3 73 1.7 - 2 9 1 5 - - 0.0
02/07:30pm 6.1 2.8 0.2 66 2.3 - 7 17 4 9 - - 0.0
02/07:00pm 7.0 3.8 0.5 63 2.6 - 7 11 4 6 - - 0.0
02/06:30pm 7.3 3.7 0.5 62 2.7 - 9 13 5 7 - - 0.0
02/06:00pm 8.1 3.7 0.6 59 3.0 - 13 20 7 11 - - 0.0
02/05:30pm 8.4 3.7 0.9 59 3.0 - 15 20 8 11 - - 0.0
02/05:00pm 9.3 5.3 0.7 55 3.5 - 11 17 6 9 - - 0.0
02/04:30pm 10.3 3.8 0.6 51 4.0 - 24 37 13 20 - - 0.0
02/04:00pm 11.0 4.9 0.4 48 4.4 - 22 35 12 19 - - 0.0
02/03:30pm 11.5 5.0 0.3 46 4.6 - 24 37 13 20 - - 0.0
02/03:00pm 11.5 3.7 -0.6 43 4.9 - 30 46 16 25 - - 0.0
02/02:55pm 11.7 4.3 -0.4 43 4.9 - 28 46 15 25 - - 0.0
02/02:30pm 11.8 4.7 -1.0 41 5.2 - 26 39 14 21 - - 0.0
02/02:00pm 12.3 4.5 -0.6 41 5.3 - 30 50 16 27 - - 0.0
02/01:51pm 12.2 4.7 -1.3 39 5.4 - 28 46 15 25 - - 0.0
02/01:30pm 12.2 3.8 -1.3 39 5.4 - 33 46 18 25 - - 0.0
02/01:14pm 11.7 4.6 1.4 49 4.4 - 28 46 15 25 - - 0.0
02/01:00pm 12.2 4.8 2.1 50 4.4 - 30 41 16 22 - - 0.0
02/12:30pm 12.1 4.8 2.3 51 4.3 - 30 48 16 26 - - 0.0
02/12:00pm 12.4 5.9 4.6 59 3.6 - 28 52 15 28 - - 0.0
02/11:33am 12.4 4.9 3.6 55 4.0 - 32 50 17 27 - - 0.0
02/11:30am 12.9 5.9 4.1 55 4.0 - 30 43 16 23 - - 0.0
02/11:00am 12.0 6.0 5.2 63 3.2 - 26 37 14 20 - - 0.0
02/10:30am 11.2 6.3 6.7 74 2.1 - 22 33 12 18 - - 0.0
02/10:00am 10.5 5.7 7.4 81 1.5 - 22 30 12 16 - - 0.0
02/09:30am 9.1 4.7 6.7 85 1.1 - 19 24 10 13 - - 0.0
02/09:00am 8.9 4.2 6.2 83 1.2 - 20 30 11 16 - - 0.0
02/08:30am 8.1 3.9 5.6 84 1.1 - 17 24 9 13 - - 0.0
02/08:00am 7.9 3.2 5.2 83 1.2 - 19 24 10 13 - - 0.0
02/07:30am 7.5 3.9 5.0 84 1.1 - 13 20 7 11 - - 0.0
02/07:00am 7.4 3.4 5.0 85 1.1 - 15 22 8 12 - - 0.0
02/06:30am 7.3 2.9 4.8 84 1.1 - 17 22 9 12 - - 0.0
02/06:00am 7.7 3.2 4.1 78 1.6 - 17 26 9 14 - - 0.0
02/05:30am 8.0 3.4 3.8 75 1.8 - 17 24 9 13 - - 0.0
02/05:00am 7.9 2.9 3.8 75 1.8 - 19 24 10 13 - - 0.0
02/04:30am 8.2 3.6 3.7 73 2.0 - 17 22 9 12 - - 0.0
02/04:00am 8.2 4.0 3.7 73 2.0 - 15 20 8 11 - - 0.0
02/03:30am 8.4 4.5 3.3 70 2.2 - 13 17 7 9 - - 0.0
02/03:00am 8.2 3.5 3.1 70 2.2 - 17 24 9 13 - - 0.0
02/02:30am 8.8 3.5 3.2 68 2.4 - 20 26 11 14 - - 0.0
02/02:00am 8.7 3.7 3.5 70 2.3 - 19 24 10 13 - - 0.0
02/01:30am 8.6 4.8 3.8 72 2.1 - 13 17 7 9 - - 0.0
02/01:00am 8.8 4.1 3.4 69 2.3 - 17 24 9 13 - - 0.0
02/12:30am 8.8 4.5 3.2 68 2.4 - 15 20 8 11 - - 0.0
02/12:00am 8.2 4.6 2.9 69 2.3 - 11 17 6 9 - - 0.0
 
Date/Time
EST
Temp
°C
App
Temp
°C
Dew
Point
Rel
Hum
%
Delta-T
°C
Wind Press
QNH
hPa
Press
MSL
hPa
Rain
since 9 am
mm
Dir
 
Spd
km/h
Gust
km/h
Spd
kts
Gust
kts
01/11:30pm 8.0 4.4 2.7 69 2.2 - 11 15 6 8 - - 0.0
01/11:00pm 8.0 4.3 2.5 68 2.3 - 11 17 6 9 - - 0.0
01/10:30pm 7.7 4.5 2.8 71 2.1 - 9 13 5 7 - - 0.0
01/10:00pm 7.2 4.0 2.9 74 1.8 - 9 9 5 5 - - 0.0
01/09:30pm 6.3 3.5 3.1 80 1.3 - 7 9 4 5 - - 0.0
01/09:00pm 5.5 2.5 2.2 79 1.3 - 7 9 4 5 - - 0.0
01/08:30pm 6.1 3.1 2.2 76 1.6 - 7 9 4 5 - - 0.0
01/08:00pm 5.8 3.0 2.3 78 1.4 - 6 7 3 4 - - 0.0
01/07:30pm 5.6 2.6 1.7 76 1.6 - 7 9 4 5 - - 0.0
01/07:00pm 7.0 4.2 2.1 71 2.0 - 6 7 3 4 - - 0.0
01/06:30pm 7.5 3.7 2.0 68 2.3 - 11 13 6 7 - - 0.0
01/06:00pm 9.4 6.1 2.7 63 2.9 - 9 13 5 7 - - 0.0
01/05:30pm 9.8 6.9 2.6 61 3.1 - 7 9 4 5 - - 0.0
01/05:00pm 10.3 7.4 2.7 59 3.3 - 7 9 4 5 - - 0.0
01/04:30pm 11.0 7.8 2.8 57 3.6 - 9 13 5 7 - - 0.0
01/04:00pm 11.5 7.4 2.3 53 4.0 - 13 20 7 11 - - 0.0
01/03:30pm 11.6 7.6 3.1 56 3.7 - 13 20 7 11 - - 0.0
01/03:00pm 11.4 7.7 4.2 61 3.2 - 13 17 7 9 - - 0.0
01/02:30pm 11.7 8.0 4.2 60 3.4 - 13 20 7 11 - - 0.0
01/02:00pm 11.4 9.3 5.7 68 2.7 - 6 9 3 5 - - 0.0
01/01:30pm 10.2 8.1 6.0 75 2.0 - 6 9 3 5 - - 0.0
01/01:00pm 9.3 7.1 5.5 77 1.7 - 6 9 3 5 - - 0.0
01/12:30pm 6.9 5.9 5.4 90 0.7 CALM 0 6 0 3 - - 0.0
01/12:00pm 5.7 3.5 5.3 97 0.2 - 6 9 3 5 - - 0.0
01/11:30am 4.6 2.2 4.5 99 0.0 - 6 9 3 5 - - 0.0
01/11:00am 3.3 1.1 3.2 99 0.0 - 4 9 2 5 - - 0.0
01/10:30am 2.1 0.0 2.0 99 0.0 - 2 6 1 3 - - 0.0
01/10:00am 1.0 -0.8 0.9 99 0.0 CALM 0 0 0 0 - - 0.0
01/09:30am -0.1 -2.5 -0.2 99 0.0 - 2 7 1 4 - - 0.0
01/09:00am -1.0 -3.1 -1.1 99 0.0 CALM 0 0 0 0 - - 0.0
01/08:30am -1.4 -3.6 -1.5 99 0.0 CALM 0 0 0 0 - - 0.0
01/08:00am -1.6 -3.8 -1.7 99 0.0 CALM 0 0 0 0 - - 0.0
01/07:30am -1.6 -3.8 -1.7 99 0.0 CALM 0 0 0 0 - - 0.0
01/07:00am -1.7 -3.9 -1.8 99 0.0 CALM 0 0 0 0 - - 0.0
01/06:30am -1.7 -3.9 -1.8 99 0.0 CALM 0 0 0 0 - - 0.0
01/06:00am -1.7 -3.9 -1.8 99 0.0 CALM 0 0 0 0 - - 0.0
01/05:30am -1.6 -3.8 -1.7 99 0.0 CALM 0 0 0 0 - - 0.0
01/05:00am -1.4 -3.6 -1.5 99 0.0 CALM 0 0 0 0 - - 0.0
01/04:30am -1.7 -3.9 -1.8 99 0.0 CALM 0 0 0 0 - - 0.0
01/04:00am -1.5 -4.1 -1.6 99 0.0 - 2 6 1 3 - - 0.0
01/03:30am -1.4 -3.6 -1.5 99 0.0 CALM 0 0 0 0 - - 0.0
01/03:00am -1.4 -3.6 -1.5 99 0.0 CALM 0 0 0 0 - - 0.0
01/02:30am -1.1 -3.3 -1.2 99 0.0 CALM 0 0 0 0 - - 0.0
01/02:00am -1.0 -3.5 -1.1 99 0.0 - 2 6 1 3 - - 0.0
01/01:30am -1.2 -3.4 -1.5 98 0.0 CALM 0 0 0 0 - - 0.0
01/01:00am -1.0 -3.2 -1.3 98 0.1 CALM 0 0 0 0 - - 0.0
01/12:30am -0.4 -3.2 -0.7 98 0.1 - 4 7 2 4 - - 0.0
01/12:00am -0.6 -2.7 -0.9 98 0.1 CALM 0 0 0 0 - - 0.0
 
Date/Time
EST
Temp
°C
App
Temp
°C
Dew
Point
Rel
Hum
%
Delta-T
°C
Wind Press
QNH
hPa
Press
MSL
hPa
Rain
since 9 am
mm
Dir
 
Spd
km/h
Gust
km/h
Spd
kts
Gust
kts
30/11:30pm 0.3 -1.7 0.0 98 0.1 CALM 0 0 0 0 - - 0.0
30/11:00pm 0.8 -2.2 0.5 98 0.1 - 6 7 3 4 - - 0.0
30/10:30pm 0.8 -1.1 0.5 98 0.1 CALM 0 0 0 0 - - 0.0
30/10:00pm 1.7 -0.1 1.4 98 0.1 CALM 0 0 0 0 - - 0.0
30/09:30pm 1.6 -1.6 1.0 96 0.2 - 7 9 4 5 - - 0.0
30/09:00pm 3.0 1.4 2.4 96 0.2 CALM 0 0 0 0 - - 0.0
30/08:30pm 3.7 2.2 3.1 96 0.2 CALM 0 0 0 0 - - 0.0
30/08:00pm 4.8 3.5 4.2 96 0.3 CALM 0 0 0 0 - - 0.0
30/07:30pm 4.6 2.1 3.7 94 0.4 - 6 7 3 4 - - 0.0
30/07:00pm 5.7 4.5 4.7 93 0.4 CALM 0 0 0 0 - - 0.0
30/06:30pm 6.2 5.1 5.2 93 0.4 CALM 0 0 0 0 - - 0.0
30/06:00pm 6.4 4.1 4.6 88 0.8 - 6 7 3 4 - - 0.0
30/05:30pm 7.1 4.6 3.9 80 1.4 - 6 7 3 4 - - 0.0
30/05:00pm 8.7 6.3 4.3 74 1.9 - 6 7 3 4 - - 0.0
30/04:30pm 10.1 7.2 4.5 68 2.5 - 9 9 5 5 - - 0.0
30/04:00pm 11.2 8.6 4.4 63 3.1 - 7 9 4 5 - - 0.0
30/03:30pm 11.0 9.6 3.8 61 3.2 CALM 0 0 0 0 - - 0.0
30/03:00pm 10.9 9.3 4.4 64 2.9 - 2 7 1 4 - - 0.0
30/02:30pm 10.5 8.0 4.0 64 2.9 - 6 9 3 5 - - 0.0
30/02:00pm 11.4 9.4 6.3 71 2.4 - 6 9 3 5 - - 0.0
30/01:30pm 10.5 8.6 6.6 77 1.8 - 6 9 3 5 - - 0.0
30/01:00pm 10.0 9.1 6.2 77 1.8 CALM 0 7 0 4 - - 0.0
30/12:30pm 9.2 8.0 6.5 83 1.3 - 2 7 1 4 - - 0.0
30/12:00pm 8.1 6.5 6.4 89 0.8 - 4 7 2 4 - - 0.0
30/11:30am 6.5 4.8 6.1 97 0.2 - 4 9 2 5 - - 0.0
30/11:00am 5.5 4.5 5.4 99 0.0 CALM 0 0 0 0 - - 0.0
30/10:30am 4.5 3.3 4.4 99 0.0 CALM 0 0 0 0 - - 0.0
30/10:00am 3.8 1.3 3.7 99 0.0 - 6 7 3 4 - - 0.0
30/09:30am 3.1 1.6 3.0 99 0.0 CALM 0 6 0 3 - - 0.0
30/09:00am 2.5 0.1 2.4 99 0.0 - 4 7 2 4 - - 0.2
30/08:30am 1.5 -0.3 1.4 99 0.0 CALM 0 0 0 0 - - 0.2
30/08:00am 0.7 -1.2 0.6 99 0.0 CALM 0 0 0 0 - - 0.0

Other Formats:

Comma delimited format used in spreadsheet applications
http://www.bom.gov.au/fwo/IDV60801/IDV60801.95836.axf

JavaScript Object Notation format (JSON) in row-major order
http://www.bom.gov.au/fwo/IDV60801/IDV60801.95836.json